Madeleine-Centre, Canada
Current Conditions -  °F | °C
As of 4:24 PM on Monday 24 Nov 2014 (Local Time) from CYGP Reporting Station
Light Rain Light Rain  
Wind Chill: 30°   Ceiling: 1400
Heat Index: 39°   Visibility: 4mi
Dew Point: 37°   Wind: 18mph
Humidity: 93%   Direction: 140°SE
Pressure: 29.71"   Gusts: 25mph
Location:  49.25°N, 65.34°W
Report Text: CYGP 242124Z 14016G22KT 120V180 4SM -RA BR FEW006 OVC014 04/03 A2971 RMK SF2SC6 PRESFR SLP061
Loading
Personal Weather Stations






























Interactive Weather Map New forecast layout! Learn more

10-Day Weather Forecast

Advertisements
Track Severe Weather on mobile